<?xml version="1.0" encoding="UTF-8" standalone="no" ?>
<gpx xmlns="http://www.topografix.com/GPX/1/1" xmlns:xsi="http://www.w3.org/2001/XMLSchema-instance" xsi:schemaLocation="http://www.topografix.com/GPX/1/1 http://www.topografix.com/GPX/1/1/gpx.xsd" version="1.1" creator="VisuGPX - https://www.visugpx.com">
  <metadata>
    <name>2024 05 22 Parcours Total 2024</name>
  </metadata>
  <trk>
    <name><![CDATA[BR6 Normal]]></name>
    <extensions>
      <line xmlns="http://www.topografix.com/GPX/gpx_style/0/2">
        <color>00ffff</color>
        <opacity>1</opacity>
        <width>6</width>
      </line>
    </extensions>
    <trkseg>
      <trkpt lat="48.12597" lon="3.30839">
        <ele>80.7</ele>
        <time>2023-11-18T09:58:50Z</time>
      </trkpt>
      <trkpt lat="48.12606" lon="3.30849">
        <ele>80.7</ele>
      </trkpt>
      <trkpt lat="48.12583" lon="3.3088">
        <ele>82</ele>
        <time>2023-11-18T09:58:43Z</time>
      </trkpt>
      <trkpt lat="48.12579" lon="3.30886">
        <ele>82</ele>
        <time>2023-11-18T09:58:42Z</time>
      </trkpt>
      <trkpt lat="48.12586" lon="3.30893">
        <ele>82.4</ele>
        <time>2023-11-18T09:58:40Z</time>
      </trkpt>
      <trkpt lat="48.12597" lon="3.30903">
        <ele>83.5</ele>
        <time>2023-11-18T09:58:37Z</time>
      </trkpt>
      <trkpt lat="48.12622" lon="3.30929">
        <ele>85.3</ele>
        <time>2023-11-18T09:58:29Z</time>
      </trkpt>
      <trkpt lat="48.12628" lon="3.30936">
        <ele>85.6</ele>
      </trkpt>
      <trkpt lat="48.1263" lon="3.30941">
        <ele>86</ele>
      </trkpt>
      <trkpt lat="48.1263" lon="3.30948">
        <ele>86.6</ele>
        <time>2023-11-18T09:58:24Z</time>
      </trkpt>
      <trkpt lat="48.12622" lon="3.30973">
        <ele>88.7</ele>
        <time>2023-11-18T09:58:22Z</time>
      </trkpt>
      <trkpt lat="48.12623" lon="3.30979">
        <ele>89</ele>
        <time>2023-11-18T09:58:17Z</time>
      </trkpt>
      <trkpt lat="48.12628" lon="3.30988">
        <ele>89.2</ele>
        <time>2023-11-18T09:58:14Z</time>
      </trkpt>
      <trkpt lat="48.1263" lon="3.30991">
        <ele>89.2</ele>
        <time>2023-11-18T09:58:13Z</time>
      </trkpt>
      <trkpt lat="48.12634" lon="3.30996">
        <ele>89.2</ele>
      </trkpt>
      <trkpt lat="48.12635" lon="3.31008">
        <ele>89.5</ele>
      </trkpt>
      <trkpt lat="48.12634" lon="3.3102">
        <ele>89.9</ele>
        <time>2023-11-18T09:58:08Z</time>
      </trkpt>
      <trkpt lat="48.12631" lon="3.31037">
        <ele>90.6</ele>
      </trkpt>
      <trkpt lat="48.12621" lon="3.31094">
        <ele>93.4</ele>
        <time>2023-11-18T09:57:55Z</time>
      </trkpt>
      <trkpt lat="48.12618" lon="3.31117">
        <ele>94.4</ele>
        <time>2023-11-18T09:57:50Z</time>
      </trkpt>
      <trkpt lat="48.12642" lon="3.31125">
        <ele>94.9</ele>
        <time>2023-11-18T09:57:42Z</time>
      </trkpt>
      <trkpt lat="48.12659" lon="3.31132">
        <ele>94.8</ele>
        <time>2023-11-18T09:57:34Z</time>
      </trkpt>
      <trkpt lat="48.1267" lon="3.31138">
        <ele>94.8</ele>
      </trkpt>
      <trkpt lat="48.12681" lon="3.31148">
        <ele>95.3</ele>
        <time>2023-11-18T09:57:25Z</time>
      </trkpt>
      <trkpt lat="48.12696" lon="3.31166">
        <ele>95.8</ele>
        <time>2023-11-18T09:57:16Z</time>
      </trkpt>
      <trkpt lat="48.12697" lon="3.31166">
        <ele>95.8</ele>
        <time>2023-11-18T09:56:25Z</time>
      </trkpt>
      <trkpt lat="48.12708" lon="3.31178">
        <ele>96</ele>
        <time>2023-11-18T09:56:09Z</time>
      </trkpt>
      <trkpt lat="48.12732" lon="3.31201">
        <ele>96.5</ele>
        <time>2023-11-18T09:56:00Z</time>
      </trkpt>
      <trkpt lat="48.12752" lon="3.31218">
        <ele>96.3</ele>
        <time>2023-11-18T09:55:52Z</time>
      </trkpt>
      <trkpt lat="48.12757" lon="3.31222">
        <ele>96</ele>
        <time>2023-11-18T09:55:50Z</time>
      </trkpt>
      <trkpt lat="48.12766" lon="3.3123">
        <ele>95.5</ele>
        <time>2023-11-18T09:55:46Z</time>
      </trkpt>
      <trkpt lat="48.12794" lon="3.31261">
        <ele>95</ele>
        <time>2023-11-18T09:55:37Z</time>
      </trkpt>
      <trkpt lat="48.12803" lon="3.3127">
        <ele>94.6</ele>
        <time>2023-11-18T09:55:35Z</time>
      </trkpt>
      <trkpt lat="48.12815" lon="3.31286">
        <ele>95.3</ele>
        <time>2023-11-18T09:55:30Z</time>
      </trkpt>
      <trkpt lat="48.12824" lon="3.31315">
        <ele>97.5</ele>
      </trkpt>
      <trkpt lat="48.12829" lon="3.31329">
        <ele>98.3</ele>
        <time>2023-11-18T09:55:26Z</time>
      </trkpt>
      <trkpt lat="48.12865" lon="3.31359">
        <ele>98.4</ele>
        <time>2023-11-18T09:55:12Z</time>
      </trkpt>
      <trkpt lat="48.1289" lon="3.31378">
        <ele>97.8</ele>
        <time>2023-11-18T09:55:03Z</time>
      </trkpt>
      <trkpt lat="48.12907" lon="3.31389">
        <ele>97.7</ele>
        <time>2023-11-18T09:54:55Z</time>
      </trkpt>
      <trkpt lat="48.12914" lon="3.31391">
        <ele>97.4</ele>
      </trkpt>
      <trkpt lat="48.12909" lon="3.31413">
        <ele>100.2</ele>
        <time>2023-11-18T09:54:46Z</time>
      </trkpt>
      <trkpt lat="48.12906" lon="3.31426">
        <ele>102.1</ele>
      </trkpt>
      <trkpt lat="48.12904" lon="3.31436">
        <ele>103.7</ele>
        <time>2023-11-18T09:52:39Z</time>
      </trkpt>
      <trkpt lat="48.12903" lon="3.3145">
        <ele>105.7</ele>
        <time>2023-11-18T09:52:29Z</time>
      </trkpt>
      <trkpt lat="48.12906" lon="3.31457">
        <ele>106.3</ele>
        <time>2023-11-18T09:52:22Z</time>
      </trkpt>
      <trkpt lat="48.12915" lon="3.31481">
        <ele>108.4</ele>
        <time>2023-11-18T09:52:17Z</time>
      </trkpt>
      <trkpt lat="48.12927" lon="3.31509">
        <ele>111</ele>
        <time>2023-11-18T09:52:12Z</time>
      </trkpt>
      <trkpt lat="48.12937" lon="3.3154">
        <ele>114</ele>
        <time>2023-11-18T09:52:07Z</time>
      </trkpt>
      <trkpt lat="48.12941" lon="3.31553">
        <ele>115.1</ele>
        <time>2023-11-18T09:52:05Z</time>
      </trkpt>
      <trkpt lat="48.12948" lon="3.3158">
        <ele>117.4</ele>
        <time>2023-11-18T09:52:00Z</time>
      </trkpt>
      <trkpt lat="48.12957" lon="3.31614">
        <ele>120.4</ele>
        <time>2023-11-18T09:51:54Z</time>
      </trkpt>
      <trkpt lat="48.12972" lon="3.3166">
        <ele>123.3</ele>
        <time>2023-11-18T09:51:45Z</time>
      </trkpt>
      <trkpt lat="48.12979" lon="3.31682">
        <ele>124.9</ele>
        <time>2023-11-18T09:51:38Z</time>
      </trkpt>
      <trkpt lat="48.12979" lon="3.31685">
        <ele>125.2</ele>
        <time>2023-11-18T08:30:42Z</time>
      </trkpt>
      <trkpt lat="48.12982" lon="3.31693">
        <ele>125.8</ele>
      </trkpt>
      <trkpt lat="48.12981" lon="3.31691">
        <ele>125.7</ele>
        <time>2023-11-18T11:25:17.740Z</time>
        <extensions>
          <visugpx:TrkExtension xmlns:visugpx="https://www.visugpx.com/editgpx/">
            <visugpx:node>1</visugpx:node>
            </visugpx:TrkExtension>
        </extensions>
      </trkpt>
      <trkpt lat="48.1298" lon="3.31689">
        <ele>125.6</ele>
        <time>2023-11-18T11:25:17.499Z</time>
      </trkpt>
      <trkpt lat="48.12979" lon="3.31689">
        <ele>125.7</ele>
        <time>2023-11-18T11:25:17.258Z</time>
      </trkpt>
      <trkpt lat="48.12978" lon="3.3169">
        <ele>125.9</ele>
        <time>2023-11-18T11:25:17.018Z</time>
      </trkpt>
      <trkpt lat="48.1297" lon="3.317">
        <ele>127.9</ele>
        <time>2023-11-18T11:25:16.778Z</time>
      </trkpt>
      <trkpt lat="48.12969" lon="3.31703">
        <ele>128.4</ele>
        <time>2023-11-18T11:25:16.540Z</time>
      </trkpt>
      <trkpt lat="48.12966" lon="3.31707">
        <ele>129.3</ele>
        <time>2023-11-18T11:25:16.302Z</time>
      </trkpt>
      <trkpt lat="48.12964" lon="3.3171">
        <ele>129.9</ele>
        <time>2023-11-18T11:25:16.065Z</time>
      </trkpt>
      <trkpt lat="48.12962" lon="3.31712">
        <ele>130.4</ele>
        <time>2023-11-18T11:25:15.829Z</time>
      </trkpt>
      <trkpt lat="48.1296" lon="3.31713">
        <ele>130.8</ele>
        <time>2023-11-18T11:25:15.593Z</time>
      </trkpt>
      <trkpt lat="48.12955" lon="3.31714">
        <ele>131.6</ele>
        <time>2023-11-18T11:25:15.357Z</time>
      </trkpt>
      <trkpt lat="48.12954" lon="3.31713">
        <ele>131.6</ele>
        <time>2023-11-18T11:25:15.122Z</time>
      </trkpt>
      <trkpt lat="48.12953" lon="3.31712">
        <ele>131.7</ele>
        <time>2023-11-18T11:25:14.888Z</time>
      </trkpt>
      <trkpt lat="48.12952" lon="3.31711">
        <ele>131.7</ele>
        <time>2023-11-18T11:25:14.654Z</time>
      </trkpt>
      <trkpt lat="48.12949" lon="3.31711">
        <ele>132.1</ele>
        <time>2023-11-18T11:25:14.420Z</time>
      </trkpt>
      <trkpt lat="48.12946" lon="3.31712">
        <ele>132.7</ele>
        <time>2023-11-18T11:25:14.187Z</time>
      </trkpt>
      <trkpt lat="48.12945" lon="3.31712">
        <ele>132.8</ele>
        <time>2023-11-18T11:25:13.954Z</time>
      </trkpt>
      <trkpt lat="48.12944" lon="3.31713">
        <ele>133.1</ele>
        <time>2023-11-18T11:25:13.722Z</time>
      </trkpt>
      <trkpt lat="48.12942" lon="3.31713">
        <ele>133.3</ele>
        <time>2023-11-18T11:25:13.490Z</time>
      </trkpt>
      <trkpt lat="48.12938" lon="3.3171">
        <ele>133.5</ele>
        <time>2023-11-18T11:25:13.258Z</time>
      </trkpt>
      <trkpt lat="48.12937" lon="3.31709">
        <ele>133.5</ele>
        <time>2023-11-18T11:25:13.027Z</time>
      </trkpt>
      <trkpt lat="48.12936" lon="3.31708">
        <ele>133.5</ele>
        <time>2023-11-18T11:25:12.797Z</time>
      </trkpt>
      <trkpt lat="48.12936" lon="3.31708">
        <ele>133.5</ele>
        <time>2023-11-18T11:25:12.567Z</time>
      </trkpt>
      <trkpt lat="48.12934" lon="3.31708">
        <ele>133.8</ele>
        <time>2023-11-18T11:25:12.337Z</time>
      </trkpt>
      <trkpt lat="48.12933" lon="3.3171">
        <ele>134.1</ele>
        <time>2023-11-18T11:25:12.107Z</time>
      </trkpt>
      <trkpt lat="48.1293" lon="3.31724">
        <ele>136.3</ele>
        <time>2023-11-18T11:25:11.877Z</time>
      </trkpt>
      <trkpt lat="48.12929" lon="3.3173">
        <ele>137.2</ele>
        <time>2023-11-18T11:25:11.649Z</time>
      </trkpt>
      <trkpt lat="48.12929" lon="3.31735">
        <ele>137.8</ele>
        <time>2023-11-18T11:25:11.422Z</time>
      </trkpt>
      <trkpt lat="48.12929" lon="3.31737">
        <ele>138.1</ele>
        <time>2023-11-18T11:25:11.196Z</time>
      </trkpt>
      <trkpt lat="48.12929" lon="3.31738">
        <ele>138.2</ele>
        <time>2023-11-18T11:25:10.970Z</time>
      </trkpt>
      <trkpt lat="48.12926" lon="3.3174">
        <ele>138.8</ele>
        <time>2023-11-18T11:25:10.744Z</time>
      </trkpt>
      <trkpt lat="48.12925" lon="3.31742">
        <ele>139.1</ele>
        <time>2023-11-18T11:25:10.519Z</time>
      </trkpt>
      <trkpt lat="48.12923" lon="3.31742">
        <ele>139.4</ele>
        <time>2023-11-18T11:25:10.294Z</time>
      </trkpt>
      <trkpt lat="48.12922" lon="3.31742">
        <ele>139.5</ele>
        <time>2023-11-18T11:25:10.070Z</time>
      </trkpt>
      <trkpt lat="48.1292" lon="3.31742">
        <ele>139.7</ele>
        <time>2023-11-18T11:25:09.846Z</time>
      </trkpt>
      <trkpt lat="48.12918" lon="3.31742">
        <ele>140</ele>
        <time>2023-11-18T11:25:09.622Z</time>
      </trkpt>
      <trkpt lat="48.12918" lon="3.31742">
        <ele>140</ele>
        <time>2023-11-18T11:25:09.399Z</time>
      </trkpt>
      <trkpt lat="48.12917" lon="3.31741">
        <ele>140</ele>
        <time>2023-11-18T11:25:09.176Z</time>
      </trkpt>
      <trkpt lat="48.12915" lon="3.31742">
        <ele>140.4</ele>
        <time>2023-11-18T11:25:08.953Z</time>
      </trkpt>
      <trkpt lat="48.12914" lon="3.31742">
        <ele>140.5</ele>
        <time>2023-11-18T11:25:08.730Z</time>
      </trkpt>
      <trkpt lat="48.12913" lon="3.31744">
        <ele>140.9</ele>
        <time>2023-11-18T11:25:08.508Z</time>
      </trkpt>
      <trkpt lat="48.12913" lon="3.31745">
        <ele>141</ele>
        <time>2023-11-18T11:25:08.286Z</time>
      </trkpt>
      <trkpt lat="48.12909" lon="3.31748">
        <ele>141.9</ele>
        <time>2023-11-18T11:25:08.064Z</time>
      </trkpt>
      <trkpt lat="48.12906" lon="3.31749">
        <ele>142.4</ele>
        <time>2023-11-18T11:25:07.843Z</time>
      </trkpt>
      <trkpt lat="48.12903" lon="3.3175">
        <ele>143</ele>
        <time>2023-11-18T11:25:07.622Z</time>
      </trkpt>
      <trkpt lat="48.12902" lon="3.3175">
        <ele>143.1</ele>
        <time>2023-11-18T11:25:07.402Z</time>
      </trkpt>
      <trkpt lat="48.129" lon="3.31752">
        <ele>143.6</ele>
        <time>2023-11-18T11:25:07.182Z</time>
      </trkpt>
      <trkpt lat="48.12899" lon="3.31755">
        <ele>144.1</ele>
        <time>2023-11-18T11:25:06.963Z</time>
      </trkpt>
      <trkpt lat="48.12899" lon="3.31757">
        <ele>144.4</ele>
        <time>2023-11-18T11:25:06.744Z</time>
      </trkpt>
      <trkpt lat="48.12899" lon="3.3176">
        <ele>144.8</ele>
        <time>2023-11-18T11:25:06.526Z</time>
      </trkpt>
      <trkpt lat="48.12899" lon="3.31761">
        <ele>144.9</ele>
        <time>2023-11-18T11:25:06.308Z</time>
      </trkpt>
      <trkpt lat="48.12899" lon="3.31763">
        <ele>145.1</ele>
        <time>2023-11-18T11:25:06.090Z</time>
      </trkpt>
      <trkpt lat="48.12898" lon="3.31765">
        <ele>145.5</ele>
        <time>2023-11-18T11:25:05.872Z</time>
      </trkpt>
      <trkpt lat="48.12898" lon="3.31768">
        <ele>145.8</ele>
        <time>2023-11-18T11:25:05.655Z</time>
      </trkpt>
      <trkpt lat="48.12898" lon="3.3177">
        <ele>146.1</ele>
        <time>2023-11-18T11:25:05.438Z</time>
      </trkpt>
      <trkpt lat="48.12897" lon="3.31772">
        <ele>146.4</ele>
        <time>2023-11-18T11:25:05.221Z</time>
      </trkpt>
      <trkpt lat="48.12895" lon="3.31775">
        <ele>147</ele>
        <time>2023-11-18T11:25:05.005Z</time>
      </trkpt>
      <trkpt lat="48.12893" lon="3.31777">
        <ele>147.5</ele>
        <time>2023-11-18T11:25:04.789Z</time>
      </trkpt>
      <trkpt lat="48.12893" lon="3.31778">
        <ele>147.6</ele>
        <time>2023-11-18T11:25:04.574Z</time>
      </trkpt>
      <trkpt lat="48.12892" lon="3.31782">
        <ele>148</ele>
        <time>2023-11-18T11:25:04.359Z</time>
      </trkpt>
      <trkpt lat="48.1289" lon="3.31784">
        <ele>148.3</ele>
        <time>2023-11-18T11:25:04.144Z</time>
      </trkpt>
      <trkpt lat="48.12889" lon="3.31784">
        <ele>148.4</ele>
        <time>2023-11-18T11:25:03.930Z</time>
      </trkpt>
      <trkpt lat="48.12887" lon="3.31784">
        <ele>148.6</ele>
        <time>2023-11-18T11:25:03.716Z</time>
      </trkpt>
      <trkpt lat="48.12886" lon="3.31784">
        <ele>148.7</ele>
        <time>2023-11-18T11:25:03.502Z</time>
      </trkpt>
      <trkpt lat="48.12881" lon="3.31787">
        <ele>149.2</ele>
        <time>2023-11-18T11:25:03.289Z</time>
      </trkpt>
      <trkpt lat="48.12879" lon="3.31787">
        <ele>149.4</ele>
        <time>2023-11-18T11:25:03.077Z</time>
      </trkpt>
      <trkpt lat="48.12875" lon="3.31787">
        <ele>149.7</ele>
        <time>2023-11-18T11:25:02.865Z</time>
      </trkpt>
      <trkpt lat="48.12874" lon="3.31786">
        <ele>149.7</ele>
        <time>2023-11-18T11:25:02.654Z</time>
      </trkpt>
      <trkpt lat="48.12872" lon="3.31787">
        <ele>149.9</ele>
        <time>2023-11-18T11:25:02.443Z</time>
      </trkpt>
      <trkpt lat="48.1287" lon="3.31788">
        <ele>150.1</ele>
        <time>2023-11-18T11:25:02.233Z</time>
      </trkpt>
      <trkpt lat="48.12869" lon="3.31789">
        <ele>150.2</ele>
        <time>2023-11-18T11:25:02.023Z</time>
      </trkpt>
      <trkpt lat="48.12867" lon="3.3179">
        <ele>150.5</ele>
        <time>2023-11-18T11:25:01.813Z</time>
      </trkpt>
      <trkpt lat="48.12866" lon="3.31792">
        <ele>150.7</ele>
        <time>2023-11-18T11:25:01.604Z</time>
      </trkpt>
      <trkpt lat="48.12864" lon="3.31798">
        <ele>151.2</ele>
        <time>2023-11-18T11:25:01.395Z</time>
      </trkpt>
      <trkpt lat="48.12864" lon="3.31798">
        <ele>151.2</ele>
        <time>2023-11-18T11:25:01.187Z</time>
      </trkpt>
      <trkpt lat="48.12863" lon="3.31801">
        <ele>151.5</ele>
        <time>2023-11-18T11:25:00.979Z</time>
      </trkpt>
      <trkpt lat="48.12862" lon="3.31803">
        <ele>151.8</ele>
        <time>2023-11-18T11:25:00.771Z</time>
      </trkpt>
      <trkpt lat="48.12861" lon="3.31805">
        <ele>152</ele>
        <time>2023-11-18T11:25:00.564Z</time>
      </trkpt>
      <trkpt lat="48.1286" lon="3.31806">
        <ele>152.1</ele>
        <time>2023-11-18T11:25:00.357Z</time>
      </trkpt>
      <trkpt lat="48.12858" lon="3.31808">
        <ele>152.4</ele>
        <time>2023-11-18T11:25:00.150Z</time>
      </trkpt>
      <trkpt lat="48.12856" lon="3.31811">
        <ele>152.7</ele>
        <time>2023-11-18T11:24:59.944Z</time>
      </trkpt>
      <trkpt lat="48.12855" lon="3.31814">
        <ele>153</ele>
        <time>2023-11-18T11:24:59.738Z</time>
      </trkpt>
      <trkpt lat="48.12855" lon="3.31819">
        <ele>153.3</ele>
        <time>2023-11-18T11:24:59.533Z</time>
      </trkpt>
      <trkpt lat="48.12854" lon="3.31822">
        <ele>153.5</ele>
        <time>2023-11-18T11:24:59.328Z</time>
      </trkpt>
      <trkpt lat="48.12853" lon="3.31823">
        <ele>153.7</ele>
        <time>2023-11-18T11:24:59.124Z</time>
      </trkpt>
      <trkpt lat="48.12851" lon="3.31825">
        <ele>153.9</ele>
        <time>2023-11-18T11:24:58.920Z</time>
      </trkpt>
      <trkpt lat="48.1285" lon="3.31825">
        <ele>153.9</ele>
        <time>2023-11-18T11:24:58.716Z</time>
      </trkpt>
      <trkpt lat="48.12849" lon="3.31826">
        <ele>154</ele>
        <time>2023-11-18T11:24:58.513Z</time>
      </trkpt>
      <trkpt lat="48.12846" lon="3.31834">
        <ele>154.6</ele>
        <time>2023-11-18T11:24:58.310Z</time>
      </trkpt>
      <trkpt lat="48.12845" lon="3.31835">
        <ele>154.7</ele>
        <time>2023-11-18T11:24:58.108Z</time>
      </trkpt>
      <trkpt lat="48.12847" lon="3.31843">
        <ele>155</ele>
        <time>2023-11-18T11:24:57.906Z</time>
      </trkpt>
      <trkpt lat="48.12838" lon="3.31856">
        <ele>155.8</ele>
        <time>2023-11-18T11:24:57.706Z</time>
      </trkpt>
      <trkpt lat="48.12835" lon="3.31858">
        <ele>155.9</ele>
        <time>2023-11-18T11:24:57.508Z</time>
      </trkpt>
      <trkpt lat="48.12833" lon="3.3186">
        <ele>156</ele>
        <time>2023-11-18T11:24:57.311Z</time>
      </trkpt>
      <trkpt lat="48.12831" lon="3.3186">
        <ele>156</ele>
        <time>2023-11-18T11:24:57.114Z</time>
      </trkpt>
      <trkpt lat="48.12829" lon="3.31862">
        <ele>156</ele>
        <time>2023-11-18T11:24:56.918Z</time>
      </trkpt>
      <trkpt lat="48.12823" lon="3.31863">
        <ele>156</ele>
        <time>2023-11-18T11:24:56.722Z</time>
      </trkpt>
      <trkpt lat="48.1282" lon="3.31863">
        <ele>156</ele>
        <time>2023-11-18T11:24:56.527Z</time>
      </trkpt>
      <trkpt lat="48.12818" lon="3.31863">
        <ele>156</ele>
        <time>2023-11-18T11:24:56.333Z</time>
      </trkpt>
      <trkpt lat="48.12815" lon="3.31862">
        <ele>156</ele>
        <time>2023-11-18T11:24:56.139Z</time>
      </trkpt>
      <trkpt lat="48.1281" lon="3.31868">
        <ele>156</ele>
        <time>2023-11-18T11:24:55.946Z</time>
      </trkpt>
      <trkpt lat="48.12809" lon="3.3187">
        <ele>156</ele>
        <time>2023-11-18T11:24:55.754Z</time>
      </trkpt>
      <trkpt lat="48.12807" lon="3.31874">
        <ele>156</ele>
        <time>2023-11-18T11:24:55.563Z</time>
      </trkpt>
      <trkpt lat="48.12804" lon="3.31879">
        <ele>155.9</ele>
        <time>2023-11-18T11:24:55.372Z</time>
      </trkpt>
      <trkpt lat="48.12804" lon="3.3188">
        <ele>155.9</ele>
        <time>2023-11-18T11:24:55.182Z</time>
      </trkpt>
      <trkpt lat="48.12803" lon="3.31881">
        <ele>155.8</ele>
        <time>2023-11-18T11:24:54.992Z</time>
      </trkpt>
      <trkpt lat="48.12801" lon="3.31883">
        <ele>155.7</ele>
        <time>2023-11-18T11:24:54.803Z</time>
      </trkpt>
      <trkpt lat="48.128" lon="3.31884">
        <ele>155.6</ele>
        <time>2023-11-18T11:24:54.614Z</time>
      </trkpt>
      <trkpt lat="48.12799" lon="3.31885">
        <ele>155.6</ele>
        <time>2023-11-18T11:24:54.425Z</time>
      </trkpt>
      <trkpt lat="48.12798" lon="3.31886">
        <ele>155.5</ele>
        <time>2023-11-18T11:24:54.236Z</time>
      </trkpt>
      <trkpt lat="48.12797" lon="3.31886">
        <ele>155.4</ele>
        <time>2023-11-18T11:24:54.048Z</time>
      </trkpt>
      <trkpt lat="48.12795" lon="3.31886">
        <ele>155.3</ele>
        <time>2023-11-18T11:24:53.860Z</time>
      </trkpt>
      <trkpt lat="48.12794" lon="3.31885">
        <ele>155.2</ele>
        <time>2023-11-18T11:24:53.672Z</time>
      </trkpt>
      <trkpt lat="48.12793" lon="3.31884">
        <ele>155.2</ele>
        <time>2023-11-18T11:24:53.484Z</time>
      </trkpt>
      <trkpt lat="48.12792" lon="3.31882">
        <ele>155.1</ele>
        <time>2023-11-18T11:24:53.297Z</time>
      </trkpt>
      <trkpt lat="48.12792" lon="3.31882">
        <ele>155.1</ele>
        <time>2023-11-18T11:24:53.110Z</time>
      </trkpt>
      <trkpt lat="48.1279" lon="3.31882">
        <ele>155</ele>
        <time>2023-11-18T11:24:52.923Z</time>
      </trkpt>
      <trkpt lat="48.12788" lon="3.31883">
        <ele>154.9</ele>
        <time>2023-11-18T11:24:52.736Z</time>
      </trkpt>
      <trkpt lat="48.12787" lon="3.31883">
        <ele>154.8</ele>
        <time>2023-11-18T11:24:52.550Z</time>
      </trkpt>
      <trkpt lat="48.12784" lon="3.31883">
        <ele>154.6</ele>
        <time>2023-11-18T11:24:52.364Z</time>
      </trkpt>
      <trkpt lat="48.12783" lon="3.31883">
        <ele>154.5</ele>
        <time>2023-11-18T11:24:52.179Z</time>
      </trkpt>
      <trkpt lat="48.12782" lon="3.31884">
        <ele>154.5</ele>
        <time>2023-11-18T11:24:51.994Z</time>
      </trkpt>
      <trkpt lat="48.12782" lon="3.31884">
        <ele>154.5</ele>
        <time>2023-11-18T11:24:51.809Z</time>
      </trkpt>
      <trkpt lat="48.12781" lon="3.31885">
        <ele>154.4</ele>
        <time>2023-11-18T11:24:51.624Z</time>
      </trkpt>
      <trkpt lat="48.12779" lon="3.31887">
        <ele>154.2</ele>
        <time>2023-11-18T11:24:51.439Z</time>
      </trkpt>
      <trkpt lat="48.12778" lon="3.31888">
        <ele>154</ele>
        <time>2023-11-18T11:24:51.255Z</time>
      </trkpt>
      <trkpt lat="48.12775" lon="3.31892">
        <ele>153.5</ele>
        <time>2023-11-18T11:24:51.071Z</time>
      </trkpt>
      <trkpt lat="48.12774" lon="3.31892">
        <ele>153.3</ele>
        <time>2023-11-18T11:24:50.888Z</time>
      </trkpt>
      <trkpt lat="48.12774" lon="3.31892">
        <ele>153.3</ele>
        <time>2023-11-18T11:24:50.705Z</time>
      </trkpt>
      <trkpt lat="48.12774" lon="3.31892">
        <ele>153.3</ele>
        <time>2023-11-18T11:24:50.522Z</time>
      </trkpt>
      <trkpt lat="48.12773" lon="3.31892">
        <ele>153.2</ele>
        <time>2023-11-18T11:24:50.339Z</time>
      </trkpt>
      <trkpt lat="48.12768" lon="3.31892">
        <ele>152.5</ele>
        <time>2023-11-18T11:24:50.156Z</time>
      </trkpt>
      <trkpt lat="48.12766" lon="3.31893">
        <ele>152.2</ele>
        <time>2023-11-18T11:24:49.974Z</time>
      </trkpt>
      <trkpt lat="48.12765" lon="3.31892">
        <ele>152</ele>
        <time>2023-11-18T11:24:49.793Z</time>
      </trkpt>
      <trkpt lat="48.12765" lon="3.31892">
        <ele>152</ele>
        <time>2023-11-18T11:24:49.612Z</time>
      </trkpt>
      <trkpt lat="48.12764" lon="3.31889">
        <ele>152</ele>
        <time>2023-11-18T11:24:49.431Z</time>
      </trkpt>
      <trkpt lat="48.12764" lon="3.31887">
        <ele>152.1</ele>
        <time>2023-11-18T11:24:49.250Z</time>
      </trkpt>
      <trkpt lat="48.12763" lon="3.31885">
        <ele>151.9</ele>
        <time>2023-11-18T11:24:49.070Z</time>
      </trkpt>
      <trkpt lat="48.12763" lon="3.31884">
        <ele>152</ele>
        <time>2023-11-18T11:24:48.890Z</time>
      </trkpt>
      <trkpt lat="48.12763" lon="3.31882">
        <ele>152</ele>
        <time>2023-11-18T11:24:48.710Z</time>
      </trkpt>
      <trkpt lat="48.12762" lon="3.31881">
        <ele>151.9</ele>
        <time>2023-11-18T11:24:48.530Z</time>
      </trkpt>
      <trkpt lat="48.12762" lon="3.31881">
        <ele>151.9</ele>
        <time>2023-11-18T11:24:48.351Z</time>
      </trkpt>
      <trkpt lat="48.12762" lon="3.31881">
        <ele>151.9</ele>
        <time>2023-11-18T11:24:48.172Z</time>
      </trkpt>
      <trkpt lat="48.12762" lon="3.3188">
        <ele>151.9</ele>
        <time>2023-11-18T11:24:47.993Z</time>
      </trkpt>
      <trkpt lat="48.12761" lon="3.3188">
        <ele>151.7</ele>
        <time>2023-11-18T11:24:47.814Z</time>
      </trkpt>
      <trkpt lat="48.12761" lon="3.31879">
        <ele>151.7</ele>
        <time>2023-11-18T11:24:47.635Z</time>
      </trkpt>
      <trkpt lat="48.12759" lon="3.31878">
        <ele>151.4</ele>
        <time>2023-11-18T11:24:47.456Z</time>
      </trkpt>
      <trkpt lat="48.12759" lon="3.31878">
        <ele>151.4</ele>
        <time>2023-11-18T11:24:47.277Z</time>
      </trkpt>
      <trkpt lat="48.12758" lon="3.31878">
        <ele>151.3</ele>
        <time>2023-11-18T11:24:47.098Z</time>
      </trkpt>
      <trkpt lat="48.12758" lon="3.31877">
        <ele>151.3</ele>
        <time>2023-11-18T11:24:46.919Z</time>
      </trkpt>
      <trkpt lat="48.12757" lon="3.31876">
        <ele>151.1</ele>
        <time>2023-11-18T11:24:46.741Z</time>
      </trkpt>
      <trkpt lat="48.12756" lon="3.31876">
        <ele>151</ele>
        <time>2023-11-18T11:24:46.563Z</time>
      </trkpt>
      <trkpt lat="48.12755" lon="3.31875">
        <ele>150.8</ele>
        <time>2023-11-18T11:24:46.385Z</time>
      </trkpt>
      <trkpt lat="48.12755" lon="3.31874">
        <ele>150.8</ele>
        <time>2023-11-18T11:24:46.207Z</time>
      </trkpt>
      <trkpt lat="48.12755" lon="3.31874">
        <ele>150.8</ele>
        <time>2023-11-18T11:24:46.029Z</time>
      </trkpt>
      <trkpt lat="48.12754" lon="3.31874">
        <ele>150.7</ele>
        <time>2023-11-18T11:24:45.851Z</time>
      </trkpt>
      <trkpt lat="48.12753" lon="3.31873">
        <ele>150.5</ele>
        <time>2023-11-18T11:24:45.674Z</time>
      </trkpt>
      <trkpt lat="48.12753" lon="3.31872">
        <ele>150.5</ele>
        <time>2023-11-18T11:24:45.497Z</time>
      </trkpt>
      <trkpt lat="48.12753" lon="3.31871">
        <ele>150.5</ele>
        <time>2023-11-18T11:24:45.320Z</time>
      </trkpt>
      <trkpt lat="48.12752" lon="3.3187">
        <ele>150.3</ele>
        <time>2023-11-18T11:24:45.143Z</time>
      </trkpt>
      <trkpt lat="48.12752" lon="3.3187">
        <ele>150.3</ele>
        <time>2023-11-18T11:24:44.966Z</time>
      </trkpt>
      <trkpt lat="48.12751" lon="3.31869">
        <ele>150.2</ele>
        <time>2023-11-18T11:24:44.789Z</time>
      </trkpt>
      <trkpt lat="48.12751" lon="3.31868">
        <ele>150.2</ele>
        <time>2023-11-18T11:24:44.612Z</time>
      </trkpt>
      <trkpt lat="48.1275" lon="3.31868">
        <ele>150</ele>
        <time>2023-11-18T11:24:44.436Z</time>
      </trkpt>
      <trkpt lat="48.12749" lon="3.31867">
        <ele>149.7</ele>
        <time>2023-11-18T11:24:44.260Z</time>
      </trkpt>
      <trkpt lat="48.12749" lon="3.31867">
        <ele>149.7</ele>
        <time>2023-11-18T11:24:44.084Z</time>
      </trkpt>
      <trkpt lat="48.12749" lon="3.31866">
        <ele>149.7</ele>
        <time>2023-11-18T11:24:43.908Z</time>
      </trkpt>
      <trkpt lat="48.12748" lon="3.31866">
        <ele>149.4</ele>
        <time>2023-11-18T11:24:43.732Z</time>
      </trkpt>
      <trkpt lat="48.12748" lon="3.31865">
        <ele>149.4</ele>
        <time>2023-11-18T11:24:43.556Z</time>
      </trkpt>
      <trkpt lat="48.12747" lon="3.31865">
        <ele>149.1</ele>
        <time>2023-11-18T11:24:43.380Z</time>
      </trkpt>
      <trkpt lat="48.12746" lon="3.31865">
        <ele>148.8</ele>
        <time>2023-11-18T11:24:43.205Z</time>
      </trkpt>
      <trkpt lat="48.12745" lon="3.31865">
        <ele>148.6</ele>
        <time>2023-11-18T11:24:43.030Z</time>
      </trkpt>
      <trkpt lat="48.12745" lon="3.31864">
        <ele>148.6</ele>
        <time>2023-11-18T11:24:42.855Z</time>
      </trkpt>
      <trkpt lat="48.12744" lon="3.31864">
        <ele>148.3</ele>
        <time>2023-11-18T11:24:42.680Z</time>
      </trkpt>
      <trkpt lat="48.12743" lon="3.31864">
        <ele>148</ele>
        <time>2023-11-18T11:24:42.505Z</time>
      </trkpt>
      <trkpt lat="48.12742" lon="3.31865">
        <ele>147.7</ele>
        <time>2023-11-18T11:24:42.330Z</time>
      </trkpt>
      <trkpt lat="48.12742" lon="3.31865">
        <ele>147.7</ele>
        <time>2023-11-18T11:24:42.155Z</time>
      </trkpt>
      <trkpt lat="48.12741" lon="3.31865">
        <ele>147.4</ele>
        <time>2023-11-18T11:24:41.981Z</time>
      </trkpt>
      <trkpt lat="48.1274" lon="3.31865">
        <ele>147.1</ele>
        <time>2023-11-18T11:24:41.807Z</time>
      </trkpt>
      <trkpt lat="48.1274" lon="3.31866">
        <ele>147.1</ele>
        <time>2023-11-18T11:24:41.633Z</time>
      </trkpt>
      <trkpt lat="48.12739" lon="3.31866">
        <ele>146.8</ele>
        <time>2023-11-18T11:24:41.459Z</time>
      </trkpt>
      <trkpt lat="48.12739" lon="3.31866">
        <ele>146.8</ele>
        <time>2023-11-18T11:24:41.285Z</time>
      </trkpt>
      <trkpt lat="48.12738" lon="3.31866">
        <ele>146.5</ele>
        <time>2023-11-18T11:24:41.111Z</time>
      </trkpt>
      <trkpt lat="48.12737" lon="3.31865">
        <ele>146.3</ele>
        <time>2023-11-18T11:24:40.937Z</time>
      </trkpt>
      <trkpt lat="48.12737" lon="3.31865">
        <ele>146.3</ele>
        <time>2023-11-18T11:24:40.764Z</time>
      </trkpt>
      <trkpt lat="48.12736" lon="3.31864">
        <ele>146</ele>
        <time>2023-11-18T11:24:40.591Z</time>
      </trkpt>
      <trkpt lat="48.12735" lon="3.31864">
        <ele>145.7</ele>
        <time>2023-11-18T11:24:40.418Z</time>
      </trkpt>
      <trkpt lat="48.12734" lon="3.31864">
        <ele>145.4</ele>
        <time>2023-11-18T11:24:40.245Z</time>
      </trkpt>
      <trkpt lat="48.12734" lon="3.31865">
        <ele>145.4</ele>
        <time>2023-11-18T11:24:40.072Z</time>
      </trkpt>
      <trkpt lat="48.12733" lon="3.31865">
        <ele>145.1</ele>
        <time>2023-11-18T11:24:39.899Z</time>
      </trkpt>
      <trkpt lat="48.12732" lon="3.31864">
        <ele>144.8</ele>
        <time>2023-11-18T11:24:39.726Z</time>
      </trkpt>
      <trkpt lat="48.12731" lon="3.31865">
        <ele>144.5</ele>
        <time>2023-11-18T11:24:39.554Z</time>
      </trkpt>
      <trkpt lat="48.12731" lon="3.31865">
        <ele>144.5</ele>
        <time>2023-11-18T11:24:39.382Z</time>
      </trkpt>
      <trkpt lat="48.1273" lon="3.31865">
        <ele>144.2</ele>
        <time>2023-11-18T11:24:39.210Z</time>
      </trkpt>
      <trkpt lat="48.12729" lon="3.31865">
        <ele>144</ele>
        <time>2023-11-18T11:24:39.038Z</time>
      </trkpt>
      <trkpt lat="48.12728" lon="3.31864">
        <ele>143.7</ele>
        <time>2023-11-18T11:24:38.866Z</time>
      </trkpt>
      <trkpt lat="48.12727" lon="3.31864">
        <ele>143.4</ele>
        <time>2023-11-18T11:24:38.694Z</time>
      </trkpt>
      <trkpt lat="48.12726" lon="3.31864">
        <ele>143.1</ele>
        <time>2023-11-18T11:24:38.523Z</time>
      </trkpt>
      <trkpt lat="48.12726" lon="3.31864">
        <ele>143.1</ele>
        <time>2023-11-18T11:24:38.352Z</time>
      </trkpt>
      <trkpt lat="48.12724" lon="3.31864">
        <ele>142.5</ele>
        <time>2023-11-18T11:24:38.181Z</time>
      </trkpt>
      <trkpt lat="48.12723" lon="3.31864">
        <ele>142.2</ele>
        <time>2023-11-18T11:24:38.010Z</time>
      </trkpt>
      <trkpt lat="48.12722" lon="3.31863">
        <ele>141.9</ele>
        <time>2023-11-18T11:24:37.839Z</time>
      </trkpt>
      <trkpt lat="48.12722" lon="3.31864">
        <ele>141.9</ele>
        <time>2023-11-18T11:24:37.669Z</time>
      </trkpt>
      <trkpt lat="48.12722" lon="3.31863">
        <ele>141.9</ele>
        <time>2023-11-18T11:24:37.499Z</time>
      </trkpt>
      <trkpt lat="48.12721" lon="3.31863">
        <ele>141.7</ele>
        <time>2023-11-18T11:24:37.329Z</time>
      </trkpt>
      <trkpt lat="48.12721" lon="3.31863">
        <ele>141.7</ele>
        <time>2023-11-18T11:24:37.159Z</time>
      </trkpt>
      <trkpt lat="48.1272" lon="3.31863">
        <ele>141.4</ele>
        <time>2023-11-18T11:24:36.989Z</time>
      </trkpt>
      <trkpt lat="48.12719" lon="3.31863">
        <ele>141.2</ele>
        <time>2023-11-18T11:24:36.819Z</time>
      </trkpt>
      <trkpt lat="48.12719" lon="3.31863">
        <ele>141.2</ele>
        <time>2023-11-18T11:24:36.649Z</time>
      </trkpt>
      <trkpt lat="48.12719" lon="3.31863">
        <ele>141.2</ele>
        <time>2023-11-18T11:24:36.479Z</time>
      </trkpt>
      <trkpt lat="48.12718" lon="3.31863">
        <ele>140.9</ele>
        <time>2023-11-18T11:24:36.309Z</time>
      </trkpt>
      <trkpt lat="48.12718" lon="3.31863">
        <ele>140.9</ele>
        <time>2023-11-18T11:24:36.140Z</time>
      </trkpt>
      <trkpt lat="48.12716" lon="3.31863">
        <ele>140.4</ele>
        <time>2023-11-18T11:24:35.971Z</time>
      </trkpt>
      <trkpt lat="48.12715" lon="3.31864">
        <ele>140.2</ele>
        <time>2023-11-18T11:24:35.802Z</time>
      </trkpt>
      <trkpt lat="48.12715" lon="3.31864">
        <ele>140.2</ele>
        <time>2023-11-18T11:24:35.633Z</time>
      </trkpt>
      <trkpt lat="48.12714" lon="3.31865">
        <ele>139.9</ele>
        <time>2023-11-18T11:24:35.464Z</time>
      </trkpt>
      <trkpt lat="48.12713" lon="3.31865">
        <ele>139.7</ele>
        <time>2023-11-18T11:24:35.295Z</time>
      </trkpt>
      <trkpt lat="48.12712" lon="3.31866">
        <ele>139.4</ele>
        <time>2023-11-18T11:24:35.127Z</time>
      </trkpt>
      <trkpt lat="48.12711" lon="3.31865">
        <ele>139.2</ele>
        <time>2023-11-18T11:24:34.959Z</time>
      </trkpt>
      <trkpt lat="48.1271" lon="3.31865">
        <ele>138.9</ele>
        <time>2023-11-18T11:24:34.791Z</time>
      </trkpt>
      <trkpt lat="48.12709" lon="3.31866">
        <ele>138.7</ele>
        <time>2023-11-18T11:24:34.623Z</time>
      </trkpt>
      <trkpt lat="48.12709" lon="3.31866">
        <ele>138.7</ele>
        <time>2023-11-18T11:24:34.455Z</time>
      </trkpt>
      <trkpt lat="48.12708" lon="3.31866">
        <ele>138.4</ele>
        <time>2023-11-18T11:24:34.287Z</time>
      </trkpt>
      <trkpt lat="48.12708" lon="3.31866">
        <ele>138.4</ele>
        <time>2023-11-18T11:24:34.120Z</time>
      </trkpt>
      <trkpt lat="48.12706" lon="3.31865">
        <ele>137.9</ele>
        <time>2023-11-18T11:24:33.953Z</time>
      </trkpt>
      <trkpt lat="48.12706" lon="3.31865">
        <ele>137.9</ele>
        <time>2023-11-18T11:24:33.786Z</time>
      </trkpt>
      <trkpt lat="48.12706" lon="3.31865">
        <ele>137.9</ele>
        <time>2023-11-18T11:24:33.619Z</time>
      </trkpt>
      <trkpt lat="48.12705" lon="3.31865">
        <ele>137.7</ele>
        <time>2023-11-18T11:24:33.452Z</time>
      </trkpt>
      <trkpt lat="48.12705" lon="3.31865">
        <ele>137.7</ele>
        <time>2023-11-18T11:24:33.285Z</time>
      </trkpt>
      <trkpt lat="48.12704" lon="3.31865">
        <ele>137.4</ele>
        <time>2023-11-18T11:24:33.118Z</time>
      </trkpt>
      <trkpt lat="48.12702" lon="3.31864">
        <ele>136.9</ele>
        <time>2023-11-18T11:24:32.952Z</time>
      </trkpt>
      <trkpt lat="48.12702" lon="3.31864">
        <ele>136.9</ele>
        <time>2023-11-18T11:24:32.786Z</time>
      </trkpt>
      <trkpt lat="48.12701" lon="3.31864">
        <ele>136.7</ele>
        <time>2023-11-18T11:24:32.620Z</time>
      </trkpt>
      <trkpt lat="48.127" lon="3.31863">
        <ele>136.4</ele>
        <time>2023-11-18T11:24:32.454Z</time>
      </trkpt>
      <trkpt lat="48.127" lon="3.31863">
        <ele>136.4</ele>
        <time>2023-11-18T11:24:32.288Z</time>
      </trkpt>
      <trkpt lat="48.12699" lon="3.31863">
        <ele>136.1</ele>
        <time>2023-11-18T11:24:32.122Z</time>
      </trkpt>
      <trkpt lat="48.12697" lon="3.31863">
        <ele>135.6</ele>
        <time>2023-11-18T11:24:31.957Z</time>
      </trkpt>
      <trkpt lat="48.12696" lon="3.31862">
        <ele>135.4</ele>
        <time>2023-11-18T11:24:31.792Z</time>
      </trkpt>
      <trkpt lat="48.12695" lon="3.31862">
        <ele>135.1</ele>
        <time>2023-11-18T11:24:31.627Z</time>
      </trkpt>
      <trkpt lat="48.12694" lon="3.31862">
        <ele>134.9</ele>
        <time>2023-11-18T11:24:31.462Z</time>
      </trkpt>
      <trkpt lat="48.12694" lon="3.31862">
        <ele>134.9</ele>
        <time>2023-11-18T11:24:31.297Z</time>
      </trkpt>
      <trkpt lat="48.12694" lon="3.31862">
        <ele>134.9</ele>
        <time>2023-11-18T11:24:31.133Z</time>
      </trkpt>
      <trkpt lat="48.12693" lon="3.31862">
        <ele>134.7</ele>
        <time>2023-11-18T11:24:30.969Z</time>
      </trkpt>
      <trkpt lat="48.12693" lon="3.31861">
        <ele>134.7</ele>
        <time>2023-11-18T11:24:30.805Z</time>
      </trkpt>
      <trkpt lat="48.12692" lon="3.31861">
        <ele>134.5</ele>
        <time>2023-11-18T11:24:30.641Z</time>
      </trkpt>
      <trkpt lat="48.12692" lon="3.31861">
        <ele>134.5</ele>
        <time>2023-11-18T11:24:30.477Z</time>
      </trkpt>
      <trkpt lat="48.1269" lon="3.3186">
        <ele>134</ele>
        <time>2023-11-18T11:24:30.313Z</time>
      </trkpt>
      <trkpt lat="48.1269" lon="3.31859">
        <ele>134</ele>
        <time>2023-11-18T11:24:30.149Z</time>
      </trkpt>
      <trkpt lat="48.1269" lon="3.31859">
        <ele>134</ele>
        <time>2023-11-18T11:24:29.985Z</time>
      </trkpt>
      <trkpt lat="48.12689" lon="3.31859">
        <ele>133.8</ele>
        <time>2023-11-18T11:24:29.822Z</time>
      </trkpt>
      <trkpt lat="48.12689" lon="3.31859">
        <ele>133.8</ele>
        <time>2023-11-18T11:24:29.659Z</time>
      </trkpt>
      <trkpt lat="48.12688" lon="3.31858">
        <ele>133.6</ele>
        <time>2023-11-18T11:24:29.496Z</time>
      </trkpt>
      <trkpt lat="48.12688" lon="3.31859">
        <ele>133.6</ele>
        <time>2023-11-18T11:24:29.333Z</time>
      </trkpt>
      <trkpt lat="48.12688" lon="3.31859">
        <ele>133.6</ele>
        <time>2023-11-18T11:24:29.170Z</time>
      </trkpt>
      <trkpt lat="48.12687" lon="3.31859">
        <ele>133.4</ele>
        <time>2023-11-18T11:24:29.007Z</time>
      </trkpt>
      <trkpt lat="48.12687" lon="3.31859">
        <ele>133.4</ele>
        <time>2023-11-18T11:24:28.844Z</time>
      </trkpt>
      <trkpt lat="48.12685" lon="3.31858">
        <ele>132.9</ele>
        <time>2023-11-18T11:24:28.681Z</time>
      </trkpt>
      <trkpt lat="48.12684" lon="3.31857">
        <ele>132.7</ele>
        <time>2023-11-18T11:24:28.519Z</time>
      </trkpt>
      <trkpt lat="48.12684" lon="3.31857">
        <ele>132.7</ele>
        <time>2023-11-18T11:24:28.357Z</time>
      </trkpt>
      <trkpt lat="48.12684" lon="3.31857">
        <ele>132.7</ele>
        <time>2023-11-18T11:24:28.195Z</time>
      </trkpt>
      <trkpt lat="48.12683" lon="3.31856">
        <ele>132.5</ele>
        <time>2023-11-18T11:24:28.033Z</time>
      </trkpt>
      <trkpt lat="48.12684" lon="3.31856">
        <ele>132.7</ele>
        <time>2023-11-18T11:24:27.871Z</time>
      </trkpt>
      <trkpt lat="48.12683" lon="3.31855">
        <ele>132.4</ele>
        <time>2023-11-18T11:24:27.709Z</time>
      </trkpt>
      <trkpt lat="48.12683" lon="3.31855">
        <ele>132.4</ele>
        <time>2023-11-18T11:24:27.547Z</time>
      </trkpt>
      <trkpt lat="48.12683" lon="3.31855">
        <ele>132.4</ele>
        <time>2023-11-18T11:24:27.385Z</time>
      </trkpt>
      <trkpt lat="48.12683" lon="3.31853">
        <ele>132.4</ele>
        <time>2023-11-18T11:24:27.223Z</time>
      </trkpt>
      <trkpt lat="48.12682" lon="3.31852">
        <ele>132.2</ele>
        <time>2023-11-18T11:24:27.061Z</time>
      </trkpt>
      <trkpt lat="48.12682" lon="3.31852">
        <ele>132.2</ele>
        <time>2023-11-18T11:24:26.900Z</time>
      </trkpt>
      <trkpt lat="48.12682" lon="3.31852">
        <ele>132.2</ele>
        <time>2023-11-18T11:24:26.739Z</time>
      </trkpt>
      <trkpt lat="48.12682" lon="3.31851">
        <ele>132.1</ele>
        <time>2023-11-18T11:24:26.578Z</time>
      </trkpt>
      <trkpt lat="48.12681" lon="3.3185">
        <ele>131.9</ele>
        <time>2023-11-18T11:24:26.417Z</time>
      </trkpt>
      <trkpt lat="48.12681" lon="3.31849">
        <ele>131.9</ele>
        <time>2023-11-18T11:24:26.256Z</time>
      </trkpt>
      <trkpt lat="48.1268" lon="3.31849">
        <ele>131.7</ele>
        <time>2023-11-18T11:24:26.095Z</time>
      </trkpt>
      <trkpt lat="48.1268" lon="3.31848">
        <ele>131.6</ele>
        <time>2023-11-18T11:24:25.934Z</time>
      </trkpt>
      <trkpt lat="48.12679" lon="3.31847">
        <ele>131.4</ele>
        <time>2023-11-18T11:24:25.773Z</time>
      </trkpt>
      <trkpt lat="48.12678" lon="3.31846">
        <ele>131.1</ele>
        <time>2023-11-18T11:24:25.613Z</time>
      </trkpt>
      <trkpt lat="48.12678" lon="3.31845">
        <ele>131.1</ele>
        <time>2023-11-18T11:24:25.453Z</time>
      </trkpt>
      <trkpt lat="48.12677" lon="3.31844">
        <ele>130.8</ele>
        <time>2023-11-18T11:24:25.293Z</time>
      </trkpt>
      <trkpt lat="48.12676" lon="3.31844">
        <ele>130.6</ele>
        <time>2023-11-18T11:24:25.133Z</time>
      </trkpt>
      <trkpt lat="48.12675" lon="3.31843">
        <ele>130.3</ele>
        <time>2023-11-18T11:24:24.973Z</time>
      </trkpt>
      <trkpt lat="48.12674" lon="3.31843">
        <ele>130.1</ele>
        <time>2023-11-18T11:24:24.814Z</time>
      </trkpt>
      <trkpt lat="48.12674" lon="3.31842">
        <ele>130.1</ele>
        <time>2023-11-18T11:24:24.655Z</time>
      </trkpt>
      <trkpt lat="48.12673" lon="3.31842">
        <ele>129.8</ele>
        <time>2023-11-18T11:24:24.496Z</time>
      </trkpt>
      <trkpt lat="48.12673" lon="3.31842">
        <ele>129.8</ele>
        <time>2023-11-18T11:24:24.337Z</time>
      </trkpt>
      <trkpt lat="48.12673" lon="3.31841">
        <ele>129.8</ele>
        <time>2023-11-18T11:24:24.178Z</time>
      </trkpt>
      <trkpt lat="48.12672" lon="3.31841">
        <ele>129.6</ele>
        <time>2023-11-18T11:24:24.019Z</time>
      </trkpt>
      <trkpt lat="48.12672" lon="3.3184">
        <ele>129.5</ele>
        <time>2023-11-18T11:24:23.860Z</time>
      </trkpt>
      <trkpt lat="48.12671" lon="3.3184">
        <ele>129.3</ele>
        <time>2023-11-18T11:24:23.701Z</time>
      </trkpt>
      <trkpt lat="48.12671" lon="3.31839">
        <ele>129.3</ele>
        <time>2023-11-18T11:24:23.543Z</time>
      </trkpt>
      <trkpt lat="48.1267" lon="3.31839">
        <ele>129</ele>
        <time>2023-11-18T11:24:23.385Z</time>
      </trkpt>
      <trkpt lat="48.12669" lon="3.3184">
        <ele>128.8</ele>
        <time>2023-11-18T11:24:23.227Z</time>
      </trkpt>
      <trkpt lat="48.12668" lon="3.3184">
        <ele>128.6</ele>
        <time>2023-11-18T11:24:23.069Z</time>
      </trkpt>
      <trkpt lat="48.12667" lon="3.3184">
        <ele>128.3</ele>
        <time>2023-11-18T11:24:22.911Z</time>
      </trkpt>
      <trkpt lat="48.12666" lon="3.31839">
        <ele>128.1</ele>
        <time>2023-11-18T11:24:22.753Z</time>
      </trkpt>
      <trkpt lat="48.12666" lon="3.31839">
        <ele>128.1</ele>
        <time>2023-11-18T11:24:22.596Z</time>
      </trkpt>
      <trkpt lat="48.12665" lon="3.31839">
        <ele>127.9</ele>
        <time>2023-11-18T11:24:22.439Z</time>
      </trkpt>
      <trkpt lat="48.12664" lon="3.31839">
        <ele>127.7</ele>
        <time>2023-11-18T11:24:22.282Z</time>
      </trkpt>
      <trkpt lat="48.12663" lon="3.31838">
        <ele>127.5</ele>
        <time>2023-11-18T11:24:22.125Z</time>
      </trkpt>
      <trkpt lat="48.12662" lon="3.31838">
        <ele>127.3</ele>
        <time>2023-11-18T11:24:21.968Z</time>
      </trkpt>
      <trkpt lat="48.12662" lon="3.31837">
        <ele>127.3</ele>
        <time>2023-11-18T11:24:21.811Z</time>
      </trkpt>
      <trkpt lat="48.12661" lon="3.31836">
        <ele>127.1</ele>
        <time>2023-11-18T11:24:21.655Z</time>
      </trkpt>
      <trkpt lat="48.12661" lon="3.31835">
        <ele>127</ele>
        <time>2023-11-18T11:24:21.499Z</time>
      </trkpt>
      <trkpt lat="48.12661" lon="3.31835">
        <ele>127</ele>
        <time>2023-11-18T11:24:21.343Z</time>
      </trkpt>
      <trkpt lat="48.12661" lon="3.31833">
        <ele>127</ele>
        <time>2023-11-18T11:24:21.187Z</time>
      </trkpt>
      <trkpt lat="48.1266" lon="3.31833">
        <ele>126.8</ele>
        <time>2023-11-18T11:24:21.031Z</time>
      </trkpt>
      <trkpt lat="48.1266" lon="3.31832">
        <ele>126.8</ele>
        <time>2023-11-18T11:24:20.875Z</time>
      </trkpt>
      <trkpt lat="48.1266" lon="3.31832">
        <ele>126.8</ele>
        <time>2023-11-18T11:24:20.719Z</time>
      </trkpt>
      <trkpt lat="48.1266" lon="3.31831">
        <ele>126.7</ele>
        <time>2023-11-18T11:24:20.563Z</time>
      </trkpt>
      <trkpt lat="48.12659" lon="3.31831">
        <ele>126.5</ele>
        <time>2023-11-18T11:24:20.407Z</time>
      </trkpt>
      <trkpt lat="48.12658" lon="3.3183">
        <ele>126.3</ele>
        <time>2023-11-18T11:24:20.252Z</time>
      </trkpt>
      <trkpt lat="48.12658" lon="3.3183">
        <ele>126.3</ele>
        <time>2023-11-18T11:24:20.097Z</time>
      </trkpt>
      <trkpt lat="48.12657" lon="3.31829">
        <ele>126.1</ele>
        <time>2023-11-18T11:24:19.942Z</time>
      </trkpt>
      <trkpt lat="48.12657" lon="3.31828">
        <ele>126.1</ele>
        <time>2023-11-18T11:24:19.787Z</time>
      </trkpt>
      <trkpt lat="48.12656" lon="3.31827">
        <ele>125.9</ele>
        <time>2023-11-18T11:24:19.632Z</time>
      </trkpt>
      <trkpt lat="48.12655" lon="3.31826">
        <ele>125.6</ele>
        <time>2023-11-18T11:24:19.477Z</time>
      </trkpt>
      <trkpt lat="48.12654" lon="3.31824">
        <ele>125.4</ele>
        <time>2023-11-18T11:24:19.323Z</time>
      </trkpt>
      <trkpt lat="48.12653" lon="3.31824">
        <ele>125.2</ele>
        <time>2023-11-18T11:24:19.169Z</time>
      </trkpt>
      <trkpt lat="48.12653" lon="3.31824">
        <ele>125.2</ele>
        <time>2023-11-18T11:24:19.015Z</time>
      </trkpt>
      <trkpt lat="48.12652" lon="3.31823">
        <ele>125</ele>
        <time>2023-11-18T11:24:18.861Z</time>
      </trkpt>
      <trkpt lat="48.12652" lon="3.31822">
        <ele>125</ele>
        <time>2023-11-18T11:24:18.707Z</time>
      </trkpt>
      <trkpt lat="48.12651" lon="3.31821">
        <ele>124.7</ele>
        <time>2023-11-18T11:24:18.554Z</time>
      </trkpt>
      <trkpt lat="48.12649" lon="3.3182">
        <ele>124.3</ele>
        <time>2023-11-18T11:24:18.401Z</time>
      </trkpt>
      <trkpt lat="48.12649" lon="3.31819">
        <ele>124.3</ele>
        <time>2023-11-18T11:24:18.248Z</time>
      </trkpt>
      <trkpt lat="48.12648" lon="3.31818">
        <ele>124.1</ele>
        <time>2023-11-18T11:24:18.095Z</time>
      </trkpt>
      <trkpt lat="48.12648" lon="3.31817">
        <ele>124.1</ele>
        <time>2023-11-18T11:24:17.942Z</time>
      </trkpt>
      <trkpt lat="48.12647" lon="3.31815">
        <ele>123.8</ele>
        <time>2023-11-18T11:24:17.790Z</time>
      </trkpt>
      <trkpt lat="48.12645" lon="3.31813">
        <ele>123.4</ele>
        <time>2023-11-18T11:24:17.638Z</time>
      </trkpt>
      <trkpt lat="48.12644" lon="3.31812">
        <ele>123.2</ele>
        <time>2023-11-18T11:24:17.486Z</time>
      </trkpt>
      <trkpt lat="48.12642" lon="3.31812">
        <ele>122.8</ele>
        <time>2023-11-18T11:24:17.335Z</time>
      </trkpt>
      <trkpt lat="48.12641" lon="3.31812">
        <ele>122.6</ele>
        <time>2023-11-18T11:24:17.184Z</time>
      </trkpt>
      <trkpt lat="48.1264" lon="3.31813">
        <ele>122.5</ele>
        <time>2023-11-18T11:24:17.033Z</time>
      </trkpt>
      <trkpt lat="48.12639" lon="3.31813">
        <ele>122.3</ele>
        <time>2023-11-18T11:24:16.882Z</time>
      </trkpt>
      <trkpt lat="48.12637" lon="3.31813">
        <ele>121.9</ele>
        <time>2023-11-18T11:24:16.732Z</time>
      </trkpt>
      <trkpt lat="48.12636" lon="3.31813">
        <ele>121.6</ele>
        <time>2023-11-18T11:24:16.582Z</time>
      </trkpt>
      <trkpt lat="48.12635" lon="3.31813">
        <ele>121.4</ele>
        <time>2023-11-18T11:24:16.432Z</time>
      </trkpt>
      <trkpt lat="48.12634" lon="3.31814">
        <ele>121.2</ele>
        <time>2023-11-18T11:24:16.283Z</time>
      </trkpt>
      <trkpt lat="48.12633" lon="3.31814">
        <ele>121</ele>
        <time>2023-11-18T11:24:16.134Z</time>
      </trkpt>
      <trkpt lat="48.12627" lon="3.3181">
        <ele>119.6</ele>
        <time>2023-11-18T11:24:15.985Z</time>
      </trkpt>
      <trkpt lat="48.12626" lon="3.31809">
        <ele>119.3</ele>
        <time>2023-11-18T11:24:15.837Z</time>
      </trkpt>
      <trkpt lat="48.12625" lon="3.31808">
        <ele>119.1</ele>
        <time>2023-11-18T11:24:15.689Z</time>
      </trkpt>
      <trkpt lat="48.12624" lon="3.31808">
        <ele>118.9</ele>
        <time>2023-11-18T11:24:15.542Z</time>
      </trkpt>
      <trkpt lat="48.12623" lon="3.31806">
        <ele>118.6</ele>
        <time>2023-11-18T11:24:15.395Z</time>
      </trkpt>
      <trkpt lat="48.12622" lon="3.31805">
        <ele>118.3</ele>
        <time>2023-11-18T11:24:15.248Z</time>
      </trkpt>
      <trkpt lat="48.12621" lon="3.31803">
        <ele>118</ele>
        <time>2023-11-18T11:24:14.955Z</time>
      </trkpt>
      <trkpt lat="48.12614" lon="3.31796">
        <ele>116.3</ele>
        <time>2023-11-18T11:24:14.809Z</time>
      </trkpt>
      <trkpt lat="48.12613" lon="3.31795">
        <ele>116</ele>
        <time>2023-11-18T11:24:14.086Z</time>
      </trkpt>
      <trkpt lat="48.12617" lon="3.31779">
        <ele>116.3</ele>
        <time>2023-11-18T11:24:13.655Z</time>
      </trkpt>
      <trkpt lat="48.12618" lon="3.31775">
        <ele>116.3</ele>
        <time>2023-11-18T11:24:13.226Z</time>
      </trkpt>
      <trkpt lat="48.12618" lon="3.31772">
        <ele>116.1</ele>
        <time>2023-11-18T11:24:13.084Z</time>
      </trkpt>
      <trkpt lat="48.12619" lon="3.3177">
        <ele>116.1</ele>
        <time>2023-11-18T11:24:12.942Z</time>
      </trkpt>
      <trkpt lat="48.12619" lon="3.31767">
        <ele>115.9</ele>
        <time>2023-11-18T11:24:12.800Z</time>
      </trkpt>
      <trkpt lat="48.1262" lon="3.31765">
        <ele>116</ele>
        <time>2023-11-18T11:24:12.659Z</time>
      </trkpt>
      <trkpt lat="48.12621" lon="3.31762">
        <ele>116</ele>
        <time>2023-11-18T11:24:12.518Z</time>
      </trkpt>
      <trkpt lat="48.12621" lon="3.31759">
        <ele>115.8</ele>
        <time>2023-11-18T11:24:12.378Z</time>
      </trkpt>
      <trkpt lat="48.12623" lon="3.31749">
        <ele>115.5</ele>
        <time>2023-11-18T11:24:12.238Z</time>
      </trkpt>
      <trkpt lat="48.12624" lon="3.31746">
        <ele>115.5</ele>
        <time>2023-11-18T11:24:12.099Z</time>
      </trkpt>
      <trkpt lat="48.12633" lon="3.31717">
        <ele>115.4</ele>
        <time>2023-11-18T11:24:11.961Z</time>
      </trkpt>
      <trkpt lat="48.12638" lon="3.31696">
        <ele>114.9</ele>
        <time>2023-11-18T11:24:11.827Z</time>
      </trkpt>
      <trkpt lat="48.12639" lon="3.3169">
        <ele>114.9</ele>
        <time>2023-11-18T11:24:11.696Z</time>
      </trkpt>
      <trkpt lat="48.1264" lon="3.31686">
        <ele>115</ele>
        <time>2023-11-18T11:24:11.566Z</time>
      </trkpt>
      <trkpt lat="48.1264" lon="3.31683">
        <ele>114.9</ele>
        <time>2023-11-18T11:24:11.436Z</time>
      </trkpt>
      <trkpt lat="48.12641" lon="3.3168">
        <ele>115</ele>
        <time>2023-11-18T11:24:11.307Z</time>
      </trkpt>
      <trkpt lat="48.12641" lon="3.31677">
        <ele>114.9</ele>
        <time>2023-11-18T11:24:11.178Z</time>
      </trkpt>
      <trkpt lat="48.12642" lon="3.31674">
        <ele>115</ele>
        <time>2023-11-18T11:24:11.050Z</time>
      </trkpt>
      <trkpt lat="48.12642" lon="3.31672">
        <ele>115</ele>
        <time>2023-11-18T11:24:10.922Z</time>
      </trkpt>
      <trkpt lat="48.12643" lon="3.31669">
        <ele>115.1</ele>
        <time>2023-11-18T11:24:10.794Z</time>
      </trkpt>
      <trkpt lat="48.12643" lon="3.31665">
        <ele>115</ele>
        <time>2023-11-18T11:24:10.667Z</time>
      </trkpt>
      <trkpt lat="48.12643" lon="3.31662">
        <ele>114.9</ele>
        <time>2023-11-18T11:24:10.540Z</time>
      </trkpt>
      <trkpt lat="48.12644" lon="3.31659">
        <ele>115</ele>
        <time>2023-11-18T11:24:10.414Z</time>
      </trkpt>
      <trkpt lat="48.12644" lon="3.31656">
        <ele>114.9</ele>
        <time>2023-11-18T11:24:10.288Z</time>
      </trkpt>
      <trkpt lat="48.12645" lon="3.31654">
        <ele>115.1</ele>
        <time>2023-11-18T11:24:10.162Z</time>
      </trkpt>
      <trkpt lat="48.12645" lon="3.31651">
        <ele>115</ele>
        <time>2023-11-18T11:24:10.037Z</time>
      </trkpt>
      <trkpt lat="48.12645" lon="3.31648">
        <ele>114.9</ele>
        <time>2023-11-18T11:24:09.912Z</time>
      </trkpt>
      <trkpt lat="48.12645" lon="3.31646">
        <ele>114.8</ele>
        <time>2023-11-18T11:24:09.788Z</time>
      </trkpt>
      <trkpt lat="48.12645" lon="3.31643">
        <ele>114.7</ele>
        <time>2023-11-18T11:24:09.664Z</time>
      </trkpt>
      <trkpt lat="48.12646" lon="3.3164">
        <ele>114.8</ele>
        <time>2023-11-18T11:24:09.540Z</time>
      </trkpt>
      <trkpt lat="48.12646" lon="3.31637">
        <ele>114.7</ele>
        <time>2023-11-18T11:24:09.417Z</time>
      </trkpt>
      <trkpt lat="48.12646" lon="3.31634">
        <ele>114.6</ele>
        <time>2023-11-18T11:24:09.294Z</time>
      </trkpt>
      <trkpt lat="48.12646" lon="3.31631">
        <ele>114.4</ele>
        <time>2023-11-18T11:24:09.172Z</time>
      </trkpt>
      <trkpt lat="48.12646" lon="3.31628">
        <ele>114.3</ele>
        <time>2023-11-18T11:24:09.050Z</time>
      </trkpt>
      <trkpt lat="48.12646" lon="3.31626">
        <ele>114.2</ele>
        <time>2023-11-18T11:24:08.928Z</time>
      </trkpt>
      <trkpt lat="48.12647" lon="3.31624">
        <ele>114.4</ele>
        <time>2023-11-18T11:24:08.807Z</time>
      </trkpt>
      <trkpt lat="48.12648" lon="3.31621">
        <ele>114.4</ele>
        <time>2023-11-18T11:24:08.686Z</time>
      </trkpt>
      <trkpt lat="48.12648" lon="3.31618">
        <ele>114.3</ele>
        <time>2023-11-18T11:24:08.565Z</time>
      </trkpt>
      <trkpt lat="48.12648" lon="3.31616">
        <ele>114.2</ele>
        <time>2023-11-18T11:24:08.445Z</time>
      </trkpt>
      <trkpt lat="48.12649" lon="3.31613">
        <ele>114.3</ele>
        <time>2023-11-18T11:24:08.325Z</time>
      </trkpt>
      <trkpt lat="48.12649" lon="3.31611">
        <ele>114.2</ele>
        <time>2023-11-18T11:24:08.205Z</time>
      </trkpt>
      <trkpt lat="48.12649" lon="3.31609">
        <ele>114</ele>
        <time>2023-11-18T11:24:08.086Z</time>
      </trkpt>
      <trkpt lat="48.12649" lon="3.31607">
        <ele>113.9</ele>
        <time>2023-11-18T11:24:07.967Z</time>
      </trkpt>
      <trkpt lat="48.1265" lon="3.31604">
        <ele>113.9</ele>
        <time>2023-11-18T11:24:07.848Z</time>
      </trkpt>
      <trkpt lat="48.1265" lon="3.31602">
        <ele>113.7</ele>
        <time>2023-11-18T11:24:07.730Z</time>
      </trkpt>
      <trkpt lat="48.12651" lon="3.31599">
        <ele>113.7</ele>
        <time>2023-11-18T11:24:07.612Z</time>
      </trkpt>
      <trkpt lat="48.12651" lon="3.31593">
        <ele>113.3</ele>
        <time>2023-11-18T11:24:07.494Z</time>
      </trkpt>
      <trkpt lat="48.12652" lon="3.3159">
        <ele>113.3</ele>
        <time>2023-11-18T11:24:07.377Z</time>
      </trkpt>
      <trkpt lat="48.12652" lon="3.31588">
        <ele>113.2</ele>
        <time>2023-11-18T11:24:07.260Z</time>
      </trkpt>
      <trkpt lat="48.12652" lon="3.31585">
        <ele>113</ele>
        <time>2023-11-18T11:24:07.144Z</time>
      </trkpt>
      <trkpt lat="48.12652" lon="3.31582">
        <ele>112.7</ele>
        <time>2023-11-18T11:24:07.028Z</time>
      </trkpt>
      <trkpt lat="48.12653" lon="3.31579">
        <ele>112.7</ele>
        <time>2023-11-18T11:24:06.913Z</time>
      </trkpt>
      <trkpt lat="48.12653" lon="3.31576">
        <ele>112.5</ele>
        <time>2023-11-18T11:24:06.798Z</time>
      </trkpt>
      <trkpt lat="48.12653" lon="3.31573">
        <ele>112.3</ele>
        <time>2023-11-18T11:24:06.683Z</time>
      </trkpt>
      <trkpt lat="48.12654" lon="3.31571">
        <ele>112.4</ele>
        <time>2023-11-18T11:24:06.569Z</time>
      </trkpt>
      <trkpt lat="48.12654" lon="3.31567">
        <ele>112.1</ele>
        <time>2023-11-18T11:24:06.455Z</time>
      </trkpt>
      <trkpt lat="48.12655" lon="3.31561">
        <ele>111.9</ele>
        <time>2023-11-18T11:24:06.342Z</time>
      </trkpt>
      <trkpt lat="48.12655" lon="3.31555">
        <ele>111.4</ele>
        <time>2023-11-18T11:24:06.229Z</time>
      </trkpt>
      <trkpt lat="48.12656" lon="3.31535">
        <ele>110.5</ele>
        <time>2023-11-18T11:24:06.117Z</time>
      </trkpt>
      <trkpt lat="48.12657" lon="3.31528">
        <ele>110.3</ele>
        <time>2023-11-18T11:24:06.008Z</time>
      </trkpt>
      <trkpt lat="48.12657" lon="3.31525">
        <ele>110.2</ele>
        <time>2023-11-18T11:24:05.900Z</time>
      </trkpt>
      <trkpt lat="48.12658" lon="3.31518">
        <ele>110.1</ele>
        <time>2023-11-18T11:24:05.792Z</time>
      </trkpt>
      <trkpt lat="48.12658" lon="3.31515">
        <ele>110</ele>
        <time>2023-11-18T11:24:05.685Z</time>
      </trkpt>
      <trkpt lat="48.12658" lon="3.31512">
        <ele>109.9</ele>
        <time>2023-11-18T11:24:05.579Z</time>
      </trkpt>
      <trkpt lat="48.12658" lon="3.31509">
        <ele>109.8</ele>
        <time>2023-11-18T11:24:05.473Z</time>
      </trkpt>
      <trkpt lat="48.12658" lon="3.31505">
        <ele>109.6</ele>
        <time>2023-11-18T11:24:05.368Z</time>
      </trkpt>
      <trkpt lat="48.12659" lon="3.31501">
        <ele>109.7</ele>
        <time>2023-11-18T11:24:05.263Z</time>
      </trkpt>
      <trkpt lat="48.12659" lon="3.31497">
        <ele>109.5</ele>
        <time>2023-11-18T11:24:05.159Z</time>
      </trkpt>
      <trkpt lat="48.12659" lon="3.31494">
        <ele>109.4</ele>
        <time>2023-11-18T11:24:05.055Z</time>
      </trkpt>
      <trkpt lat="48.1266" lon="3.31483">
        <ele>109.2</ele>
        <time>2023-11-18T11:24:04.951Z</time>
      </trkpt>
      <trkpt lat="48.12661" lon="3.31479">
        <ele>109.2</ele>
        <time>2023-11-18T11:24:04.849Z</time>
      </trkpt>
      <trkpt lat="48.12662" lon="3.31469">
        <ele>109.1</ele>
        <time>2023-11-18T11:24:04.748Z</time>
      </trkpt>
      <trkpt lat="48.12662" lon="3.31466">
        <ele>109</ele>
        <time>2023-11-18T11:24:04.648Z</time>
      </trkpt>
      <trkpt lat="48.12663" lon="3.31462">
        <ele>109</ele>
        <time>2023-11-18T11:24:04.548Z</time>
      </trkpt>
      <trkpt lat="48.12664" lon="3.31447">
        <ele>108.7</ele>
        <time>2023-11-18T11:24:04.449Z</time>
      </trkpt>
      <trkpt lat="48.12667" lon="3.31409">
        <ele>109</ele>
        <time>2023-11-18T11:24:04.352Z</time>
      </trkpt>
      <trkpt lat="48.12669" lon="3.31391">
        <ele>109.3</ele>
        <time>2023-11-18T11:24:04.260Z</time>
      </trkpt>
      <trkpt lat="48.1267" lon="3.31388">
        <ele>109.5</ele>
        <time>2023-11-18T11:24:04.170Z</time>
      </trkpt>
      <trkpt lat="48.1267" lon="3.31383">
        <ele>109.5</ele>
        <time>2023-11-18T11:24:04.081Z</time>
      </trkpt>
      <trkpt lat="48.1267" lon="3.31381">
        <ele>109.5</ele>
        <time>2023-11-18T11:24:03.993Z</time>
      </trkpt>
      <trkpt lat="48.12671" lon="3.31377">
        <ele>109.6</ele>
        <time>2023-11-18T11:24:03.905Z</time>
      </trkpt>
      <trkpt lat="48.12671" lon="3.31374">
        <ele>109.6</ele>
        <time>2023-11-18T11:24:03.817Z</time>
      </trkpt>
      <trkpt lat="48.12671" lon="3.3137">
        <ele>109.6</ele>
        <time>2023-11-18T11:24:03.730Z</time>
      </trkpt>
      <trkpt lat="48.12672" lon="3.31366">
        <ele>109.8</ele>
        <time>2023-11-18T11:24:03.643Z</time>
      </trkpt>
      <trkpt lat="48.12672" lon="3.31364">
        <ele>109.8</ele>
        <time>2023-11-18T11:24:03.557Z</time>
      </trkpt>
      <trkpt lat="48.12673" lon="3.3136">
        <ele>109.9</ele>
        <time>2023-11-18T11:24:03.471Z</time>
      </trkpt>
      <trkpt lat="48.12674" lon="3.31357">
        <ele>110</ele>
        <time>2023-11-18T11:24:03.386Z</time>
      </trkpt>
      <trkpt lat="48.12674" lon="3.31354">
        <ele>110</ele>
        <time>2023-11-18T11:24:03.301Z</time>
      </trkpt>
      <trkpt lat="48.12675" lon="3.3135">
        <ele>110.1</ele>
        <time>2023-11-18T11:24:03.216Z</time>
      </trkpt>
      <trkpt lat="48.12675" lon="3.31348">
        <ele>110.1</ele>
        <time>2023-11-18T11:24:03.132Z</time>
      </trkpt>
      <trkpt lat="48.12675" lon="3.31345">
        <ele>110</ele>
        <time>2023-11-18T11:24:03.048Z</time>
      </trkpt>
      <trkpt lat="48.12675" lon="3.31341">
        <ele>110</ele>
        <time>2023-11-18T11:24:02.965Z</time>
      </trkpt>
      <trkpt lat="48.12675" lon="3.31339">
        <ele>110</ele>
        <time>2023-11-18T11:24:02.882Z</time>
      </trkpt>
      <trkpt lat="48.12675" lon="3.31336">
        <ele>109.9</ele>
        <time>2023-11-18T11:24:02.800Z</time>
      </trkpt>
      <trkpt lat="48.12674" lon="3.31333">
        <ele>109.8</ele>
        <time>2023-11-18T11:24:02.718Z</time>
      </trkpt>
      <trkpt lat="48.12673" lon="3.31331">
        <ele>109.6</ele>
        <time>2023-11-18T11:24:02.636Z</time>
      </trkpt>
      <trkpt lat="48.12672" lon="3.31329">
        <ele>109.5</ele>
        <time>2023-11-18T11:24:02.555Z</time>
      </trkpt>
      <trkpt lat="48.12671" lon="3.31327">
        <ele>109.4</ele>
        <time>2023-11-18T11:24:02.474Z</time>
      </trkpt>
      <trkpt lat="48.12669" lon="3.31325">
        <ele>109.2</ele>
        <time>2023-11-18T11:24:02.393Z</time>
      </trkpt>
      <trkpt lat="48.12667" lon="3.31324">
        <ele>109</ele>
        <time>2023-11-18T11:24:02.313Z</time>
      </trkpt>
      <trkpt lat="48.12666" lon="3.31323">
        <ele>108.9</ele>
        <time>2023-11-18T11:24:02.233Z</time>
      </trkpt>
      <trkpt lat="48.12665" lon="3.31322">
        <ele>108.8</ele>
        <time>2023-11-18T11:24:02.153Z</time>
      </trkpt>
      <trkpt lat="48.12663" lon="3.31322">
        <ele>108.6</ele>
        <time>2023-11-18T11:24:02.074Z</time>
      </trkpt>
      <trkpt lat="48.12662" lon="3.31322">
        <ele>108.5</ele>
        <time>2023-11-18T11:24:01.995Z</time>
      </trkpt>
      <trkpt lat="48.1266" lon="3.31321">
        <ele>108.3</ele>
        <time>2023-11-18T11:24:01.916Z</time>
      </trkpt>
      <trkpt lat="48.12659" lon="3.3132">
        <ele>108.2</ele>
        <time>2023-11-18T11:24:01.838Z</time>
      </trkpt>
      <trkpt lat="48.12657" lon="3.3132">
        <ele>108</ele>
        <time>2023-11-18T11:24:01.760Z</time>
      </trkpt>
      <trkpt lat="48.12655" lon="3.31319">
        <ele>107.7</ele>
        <time>2023-11-18T11:24:01.682Z</time>
      </trkpt>
      <trkpt lat="48.12654" lon="3.31319">
        <ele>107.6</ele>
        <time>2023-11-18T11:24:01.605Z</time>
      </trkpt>
      <trkpt lat="48.12653" lon="3.31318">
        <ele>107.5</ele>
        <time>2023-11-18T11:24:01.528Z</time>
      </trkpt>
      <trkpt lat="48.12651" lon="3.31317">
        <ele>107.3</ele>
        <time>2023-11-18T11:24:01.451Z</time>
      </trkpt>
      <trkpt lat="48.1265" lon="3.31317">
        <ele>107.2</ele>
        <time>2023-11-18T11:24:01.375Z</time>
      </trkpt>
      <trkpt lat="48.12649" lon="3.31316">
        <ele>107.1</ele>
        <time>2023-11-18T11:24:01.299Z</time>
      </trkpt>
      <trkpt lat="48.12648" lon="3.31315">
        <ele>107</ele>
        <time>2023-11-18T11:24:01.223Z</time>
      </trkpt>
      <trkpt lat="48.12646" lon="3.31315">
        <ele>106.8</ele>
        <time>2023-11-18T11:24:01.147Z</time>
      </trkpt>
      <trkpt lat="48.12645" lon="3.31314">
        <ele>106.7</ele>
        <time>2023-11-18T11:24:01.072Z</time>
      </trkpt>
      <trkpt lat="48.12644" lon="3.31314">
        <ele>106.6</ele>
        <time>2023-11-18T11:24:00.997Z</time>
      </trkpt>
      <trkpt lat="48.12642" lon="3.31313">
        <ele>106.3</ele>
        <time>2023-11-18T11:24:00.922Z</time>
      </trkpt>
      <trkpt lat="48.12641" lon="3.31313">
        <ele>106.2</ele>
        <time>2023-11-18T11:24:00.847Z</time>
      </trkpt>
      <trkpt lat="48.12639" lon="3.31312">
        <ele>106</ele>
        <time>2023-11-18T11:24:00.773Z</time>
      </trkpt>
      <trkpt lat="48.12637" lon="3.31312">
        <ele>105.7</ele>
        <time>2023-11-18T11:24:00.699Z</time>
      </trkpt>
      <trkpt lat="48.12636" lon="3.31311">
        <ele>105.6</ele>
        <time>2023-11-18T11:24:00.625Z</time>
      </trkpt>
      <trkpt lat="48.12634" lon="3.31309">
        <ele>105.3</ele>
        <time>2023-11-18T11:24:00.552Z</time>
      </trkpt>
      <trkpt lat="48.12633" lon="3.31308">
        <ele>105.1</ele>
        <time>2023-11-18T11:24:00.479Z</time>
      </trkpt>
      <trkpt lat="48.12631" lon="3.31307">
        <ele>104.8</ele>
        <time>2023-11-18T11:24:00.407Z</time>
      </trkpt>
      <trkpt lat="48.1263" lon="3.31305">
        <ele>104.7</ele>
        <time>2023-11-18T11:24:00.335Z</time>
      </trkpt>
      <trkpt lat="48.12628" lon="3.31304">
        <ele>104.4</ele>
        <time>2023-11-18T11:24:00.263Z</time>
      </trkpt>
      <trkpt lat="48.12627" lon="3.31303">
        <ele>104.2</ele>
        <time>2023-11-18T11:24:00.192Z</time>
      </trkpt>
      <trkpt lat="48.12625" lon="3.31301">
        <ele>103.9</ele>
        <time>2023-11-18T11:24:00.121Z</time>
      </trkpt>
      <trkpt lat="48.12624" lon="3.31299">
        <ele>103.7</ele>
        <time>2023-11-18T11:24:00.050Z</time>
      </trkpt>
      <trkpt lat="48.12623" lon="3.31297">
        <ele>103.6</ele>
        <time>2023-11-18T11:23:59.980Z</time>
      </trkpt>
      <trkpt lat="48.12621" lon="3.31295">
        <ele>103.3</ele>
        <time>2023-11-18T11:23:59.910Z</time>
      </trkpt>
      <trkpt lat="48.1262" lon="3.31294">
        <ele>103.1</ele>
        <time>2023-11-18T11:23:59.840Z</time>
      </trkpt>
      <trkpt lat="48.12619" lon="3.31292">
        <ele>103</ele>
        <time>2023-11-18T11:23:59.771Z</time>
      </trkpt>
      <trkpt lat="48.12618" lon="3.3129">
        <ele>102.9</ele>
        <time>2023-11-18T11:23:59.702Z</time>
      </trkpt>
      <trkpt lat="48.12617" lon="3.31288">
        <ele>102.7</ele>
        <time>2023-11-18T11:23:59.633Z</time>
      </trkpt>
      <trkpt lat="48.12615" lon="3.31286">
        <ele>102.5</ele>
        <time>2023-11-18T11:23:59.565Z</time>
      </trkpt>
      <trkpt lat="48.12615" lon="3.31283">
        <ele>102.4</ele>
        <time>2023-11-18T11:23:59.497Z</time>
      </trkpt>
      <trkpt lat="48.12614" lon="3.3128">
        <ele>102.3</ele>
        <time>2023-11-18T11:23:59.430Z</time>
      </trkpt>
      <trkpt lat="48.12613" lon="3.31278">
        <ele>102.2</ele>
        <time>2023-11-18T11:23:59.363Z</time>
      </trkpt>
      <trkpt lat="48.12613" lon="3.31276">
        <ele>102.1</ele>
        <time>2023-11-18T11:23:59.296Z</time>
      </trkpt>
      <trkpt lat="48.12612" lon="3.31273">
        <ele>101.9</ele>
        <time>2023-11-18T11:23:59.230Z</time>
      </trkpt>
      <trkpt lat="48.12611" lon="3.31271">
        <ele>101.7</ele>
        <time>2023-11-18T11:23:59.164Z</time>
      </trkpt>
      <trkpt lat="48.12611" lon="3.31268">
        <ele>101.6</ele>
        <time>2023-11-18T11:23:59.098Z</time>
      </trkpt>
      <trkpt lat="48.1261" lon="3.31266">
        <ele>101.4</ele>
        <time>2023-11-18T11:23:59.033Z</time>
      </trkpt>
      <trkpt lat="48.1261" lon="3.31262">
        <ele>101.2</ele>
        <time>2023-11-18T11:23:58.968Z</time>
      </trkpt>
      <trkpt lat="48.1261" lon="3.31259">
        <ele>101.1</ele>
        <time>2023-11-18T11:23:58.904Z</time>
      </trkpt>
      <trkpt lat="48.1261" lon="3.31256">
        <ele>101</ele>
        <time>2023-11-18T11:23:58.840Z</time>
      </trkpt>
      <trkpt lat="48.1261" lon="3.31254">
        <ele>100.9</ele>
        <time>2023-11-18T11:23:58.776Z</time>
      </trkpt>
      <trkpt lat="48.1261" lon="3.31251">
        <ele>100.8</ele>
        <time>2023-11-18T11:23:58.713Z</time>
      </trkpt>
      <trkpt lat="48.1261" lon="3.31248">
        <ele>100.7</ele>
        <time>2023-11-18T11:23:58.650Z</time>
      </trkpt>
      <trkpt lat="48.1261" lon="3.31245">
        <ele>100.6</ele>
        <time>2023-11-18T11:23:58.587Z</time>
      </trkpt>
      <trkpt lat="48.1261" lon="3.31242">
        <ele>100.5</ele>
        <time>2023-11-18T11:23:58.525Z</time>
      </trkpt>
      <trkpt lat="48.1261" lon="3.3124">
        <ele>100.5</ele>
        <time>2023-11-18T11:23:58.463Z</time>
      </trkpt>
      <trkpt lat="48.12611" lon="3.31236">
        <ele>100.5</ele>
        <time>2023-11-18T11:23:58.402Z</time>
      </trkpt>
      <trkpt lat="48.12612" lon="3.31233">
        <ele>100.5</ele>
        <time>2023-11-18T11:23:58.341Z</time>
      </trkpt>
      <trkpt lat="48.12612" lon="3.31231">
        <ele>100.4</ele>
        <time>2023-11-18T11:23:58.280Z</time>
      </trkpt>
      <trkpt lat="48.12613" lon="3.31228">
        <ele>100.4</ele>
        <time>2023-11-18T11:23:58.220Z</time>
      </trkpt>
      <trkpt lat="48.12613" lon="3.31225">
        <ele>100.2</ele>
        <time>2023-11-18T11:23:58.160Z</time>
      </trkpt>
      <trkpt lat="48.12614" lon="3.31222">
        <ele>100.2</ele>
        <time>2023-11-18T11:23:58.101Z</time>
      </trkpt>
      <trkpt lat="48.12614" lon="3.31219">
        <ele>100.1</ele>
        <time>2023-11-18T11:23:58.042Z</time>
      </trkpt>
      <trkpt lat="48.12614" lon="3.31217">
        <ele>100</ele>
        <time>2023-11-18T11:23:57.983Z</time>
      </trkpt>
      <trkpt lat="48.12614" lon="3.31214">
        <ele>99.9</ele>
        <time>2023-11-18T11:23:57.925Z</time>
      </trkpt>
      <trkpt lat="48.12615" lon="3.31211">
        <ele>99.8</ele>
        <time>2023-11-18T11:23:57.867Z</time>
      </trkpt>
      <trkpt lat="48.12615" lon="3.31208">
        <ele>99.7</ele>
        <time>2023-11-18T11:23:57.809Z</time>
      </trkpt>
      <trkpt lat="48.12616" lon="3.31205">
        <ele>99.6</ele>
        <time>2023-11-18T11:23:57.752Z</time>
      </trkpt>
      <trkpt lat="48.12616" lon="3.31202">
        <ele>99.5</ele>
        <time>2023-11-18T11:23:57.695Z</time>
      </trkpt>
      <trkpt lat="48.12616" lon="3.31199">
        <ele>99.4</ele>
        <time>2023-11-18T11:23:57.639Z</time>
      </trkpt>
      <trkpt lat="48.12616" lon="3.31197">
        <ele>99.3</ele>
        <time>2023-11-18T11:23:57.583Z</time>
      </trkpt>
      <trkpt lat="48.12617" lon="3.31194">
        <ele>99.2</ele>
        <time>2023-11-18T11:23:57.527Z</time>
      </trkpt>
      <trkpt lat="48.12618" lon="3.31188">
        <ele>98.8</ele>
        <time>2023-11-18T11:23:57.472Z</time>
      </trkpt>
      <trkpt lat="48.12617" lon="3.31169">
        <ele>97.4</ele>
        <time>2023-11-18T11:23:57.418Z</time>
      </trkpt>
      <trkpt lat="48.12617" lon="3.31166">
        <ele>97.2</ele>
        <time>2023-11-18T11:23:57.366Z</time>
      </trkpt>
      <trkpt lat="48.12617" lon="3.3116">
        <ele>96.9</ele>
        <time>2023-11-18T11:23:57.315Z</time>
      </trkpt>
      <trkpt lat="48.12617" lon="3.31151">
        <ele>96.5</ele>
        <time>2023-11-18T11:23:57.264Z</time>
      </trkpt>
      <trkpt lat="48.12617" lon="3.31148">
        <ele>96.4</ele>
        <time>2023-11-18T11:23:57.215Z</time>
      </trkpt>
      <trkpt lat="48.12617" lon="3.31128">
        <ele>95.2</ele>
        <time>2023-11-18T11:23:57.166Z</time>
      </trkpt>
      <trkpt lat="48.12635" lon="3.31014">
        <ele>89.7</ele>
      </trkpt>
      <trkpt lat="48.12635" lon="3.31">
        <ele>89.3</ele>
      </trkpt>
      <trkpt lat="48.12631" lon="3.30993">
        <ele>89.2</ele>
      </trkpt>
      <trkpt lat="48.12626" lon="3.30985">
        <ele>89.1</ele>
      </trkpt>
      <trkpt lat="48.12623" lon="3.30979">
        <ele>89</ele>
      </trkpt>
      <trkpt lat="48.12622" lon="3.30972">
        <ele>88.6</ele>
      </trkpt>
      <trkpt lat="48.1263" lon="3.3095">
        <ele>86.7</ele>
      </trkpt>
      <trkpt lat="48.1263" lon="3.30944">
        <ele>86.3</ele>
      </trkpt>
      <trkpt lat="48.12629" lon="3.30938">
        <ele>85.7</ele>
      </trkpt>
      <trkpt lat="48.12625" lon="3.30931">
        <ele>85.3</ele>
      </trkpt>
      <trkpt lat="48.12579" lon="3.30886">
        <ele>82</ele>
      </trkpt>
      <trkpt lat="48.12606" lon="3.30849">
        <ele>80.7</ele>
      </trkpt>
      <trkpt lat="48.12596" lon="3.3084">
        <ele>80.8</ele>
        <time>2023-11-18T11:23:57.120Z</time>
        <extensions>
          <visugpx:TrkExtension xmlns:visugpx="https://www.visugpx.com/editgpx/">
            <visugpx:node>2</visugpx:node>
            </visugpx:TrkExtension>
        </extensions>
      </trkpt>
    </trkseg>
  </trk>
</gpx>